Time,TemperatureF,DewpointF,PressureIn,WindDirection,WindDirectionDegrees,WindSpeedMPH,WindSpeedGustMPH,Humidity,HourlyPrecipIn,Conditions,Clouds,dailyrainin,SoftwareType,DateUTC
2013-03-16 00:04:00,71.0,0.0,29.89,NNW,343,7.0,10.0,25,-99.99,,,-99.99,,2013-03-16 07:04:00,
2013-03-16 00:12:00,71.0,0.0,29.89,ESE,114,3.0,5.0,27,-99.99,,,-99.99,,2013-03-16 07:12:00,
2013-03-16 00:20:00,70.0,0.0,29.89,East,86,3.0,5.0,27,-99.99,,,-99.99,,2013-03-16 07:20:00,
2013-03-16 00:28:00,69.0,0.0,29.89,East,79,5.0,8.0,27,-99.99,,,-99.99,,2013-03-16 07:28:00,
2013-03-16 00:36:00,68.0,0.0,29.89,ESE,114,2.0,5.0,30,-99.99,,,-99.99,,2013-03-16 07:36:00,
2013-03-16 00:44:00,68.0,0.0,29.89,NE,51,3.0,3.0,28,-99.99,,,-99.99,,2013-03-16 07:44:00,
2013-03-16 00:52:00,70.0,0.0,29.89,North,0,3.0,6.0,26,-99.99,,,-99.99,,2013-03-16 07:52:00,
2013-03-16 01:00:00,71.0,0.0,29.89,NNE,13,3.0,3.0,23,-99.99,,,-99.99,,2013-03-16 08:00:00,
2013-03-16 01:08:00,72.0,0.0,29.89,North,361,5.0,7.0,23,-99.99,,,-99.99,,2013-03-16 08:08:00,
2013-03-16 01:16:00,72.0,0.0,29.90,North,358,6.0,9.0,21,-99.99,,,-99.99,,2013-03-16 08:16:00,
2013-03-16 01:24:00,70.0,0.0,29.90,NW,312,6.0,7.0,23,-99.99,,,-99.99,,2013-03-16 08:24:00,
2013-03-16 01:32:00,71.0,0.0,29.90,NNW,343,7.0,9.0,22,-99.99,,,-99.99,,2013-03-16 08:32:00,
2013-03-16 01:40:00,74.0,0.0,29.89,NNW,338,7.0,13.0,20,-99.99,,,-99.99,,2013-03-16 08:40:00,
2013-03-16 01:48:00,73.0,0.0,29.89,NNW,337,6.0,8.0,20,-99.99,,,-99.99,,2013-03-16 08:48:00,
2013-03-16 01:56:00,74.0,0.0,29.89,NNW,340,9.0,13.0,19,-99.99,,,-99.99,,2013-03-16 08:56:00,
2013-03-16 02:04:00,73.0,0.0,29.90,NE,48,3.0,10.0,20,-99.99,,,-99.99,,2013-03-16 09:04:00,
2013-03-16 02:12:00,71.0,0.0,29.90,NNW,341,7.0,8.0,21,-99.99,,,-99.99,,2013-03-16 09:12:00,
2013-03-16 02:20:00,74.0,0.0,29.90,North,358,14.0,18.0,19,-99.99,,,-99.99,,2013-03-16 09:20:00,
2013-03-16 02:28:00,74.0,0.0,29.90,NNW,329,12.0,13.0,20,-99.99,,,-99.99,,2013-03-16 09:28:00,
2013-03-16 02:36:00,74.0,0.0,29.90,NNW,338,8.0,14.0,18,-99.99,,,-99.99,,2013-03-16 09:36:00,